sensor_id;sensor_type;location;lat;lon;timestamp;P1;P2;P0
73517;PMS5003;61766;60.318;25.044;2023-05-16T00:01:07;9;9;
73517;PMS5003;61766;60.318;25.044;2023-05-16T00:03:33;9;8;
73517;PMS5003;61766;60.318;25.044;2023-05-16T00:05:59;9;9;
73517;PMS5003;61766;60.318;25.044;2023-05-16T00:08:25;8;8;
73517;PMS5003;61766;60.318;25.044;2023-05-16T00:10:51;10;9;
73517;PMS5003;61766;60.318;25.044;2023-05-16T00:13:16;11;11;
73517;PMS5003;61766;60.318;25.044;2023-05-16T00:15:42;9;9;
73517;PMS5003;61766;60.318;25.044;2023-05-16T00:18:08;9;9;
73517;PMS5003;61766;60.318;25.044;2023-05-16T00:20:34;10;10;
73517;PMS5003;61766;60.318;25.044;2023-05-16T00:23:00;9;9;
73517;PMS5003;61766;60.318;25.044;2023-05-16T00:25:26;11;11;
73517;PMS5003;61766;60.318;25.044;2023-05-16T00:27:51;11;11;
73517;PMS5003;61766;60.318;25.044;2023-05-16T00:30:17;11;11;
73517;PMS5003;61766;60.318;25.044;2023-05-16T00:32:43;10;9;
73517;PMS5003;61766;60.318;25.044;2023-05-16T00:35:09;10;10;
73517;PMS5003;61766;60.318;25.044;2023-05-16T00:37:35;9;9;
73517;PMS5003;61766;60.318;25.044;2023-05-16T00:40:01;10;10;
73517;PMS5003;61766;60.318;25.044;2023-05-16T00:42:26;9;8;
73517;PMS5003;61766;60.318;25.044;2023-05-16T00:44:52;12;11;
73517;PMS5003;61766;60.318;25.044;2023-05-16T00:47:18;10;10;
73517;PMS5003;61766;60.318;25.044;2023-05-16T00:49:44;11;11;
73517;PMS5003;61766;60.318;25.044;2023-05-16T00:52:09;11;11;
73517;PMS5003;61766;60.318;25.044;2023-05-16T00:54:35;10;10;
73517;PMS5003;61766;60.318;25.044;2023-05-16T00:57:01;10;9;
73517;PMS5003;61766;60.318;25.044;2023-05-16T00:59:27;11;11;
73517;PMS5003;61766;60.318;25.044;2023-05-16T01:01:52;10;10;
73517;PMS5003;61766;60.318;25.044;2023-05-16T01:04:18;10;10;
73517;PMS5003;61766;60.318;25.044;2023-05-16T01:06:45;12;12;
73517;PMS5003;61766;60.318;25.044;2023-05-16T01:09:10;12;11;
73517;PMS5003;61766;60.318;25.044;2023-05-16T01:11:37;10;10;
73517;PMS5003;61766;60.318;25.044;2023-05-16T01:14:06;9;9;
73517;PMS5003;61766;60.318;25.044;2023-05-16T01:16:29;13;12;
73517;PMS5003;61766;60.318;25.044;2023-05-16T01:18:55;9;9;
73517;PMS5003;61766;60.318;25.044;2023-05-16T01:21:22;9;9;
73517;PMS5003;61766;60.318;25.044;2023-05-16T01:23:48;10;9;
73517;PMS5003;61766;60.318;25.044;2023-05-16T01:26:12;9;9;
73517;PMS5003;61766;60.318;25.044;2023-05-16T01:28:36;9;8;
73517;PMS5003;61766;60.318;25.044;2023-05-16T01:31:02;10;10;
73517;PMS5003;61766;60.318;25.044;2023-05-16T01:33:28;9;8;
73517;PMS5003;61766;60.318;25.044;2023-05-16T01:35:57;10;10;
73517;PMS5003;61766;60.318;25.044;2023-05-16T01:38:22;12;11;
73517;PMS5003;61766;60.318;25.044;2023-05-16T01:40:47;7;7;
73517;PMS5003;61766;60.318;25.044;2023-05-16T01:43:13;8;8;
73517;PMS5003;61766;60.318;25.044;2023-05-16T01:45:38;7;7;
73517;PMS5003;61766;60.318;25.044;2023-05-16T01:48:04;10;10;
73517;PMS5003;61766;60.318;25.044;2023-05-16T01:50:29;11;11;
73517;PMS5003;61766;60.318;25.044;2023-05-16T01:52:56;8;8;
73517;PMS5003;61766;60.318;25.044;2023-05-16T01:55:22;10;10;
73517;PMS5003;61766;60.318;25.044;2023-05-16T01:57:46;9;9;
73517;PMS5003;61766;60.318;25.044;2023-05-16T02:00:12;10;10;
73517;PMS5003;61766;60.318;25.044;2023-05-16T02:02:38;10;8;
73517;PMS5003;61766;60.318;25.044;2023-05-16T02:05:04;10;10;
73517;PMS5003;61766;60.318;25.044;2023-05-16T02:07:29;10;9;
73517;PMS5003;61766;60.318;25.044;2023-05-16T02:09:55;8;8;
73517;PMS5003;61766;60.318;25.044;2023-05-16T02:12:23;8;8;
73517;PMS5003;61766;60.318;25.044;2023-05-16T02:14:47;7;7;
73517;PMS5003;61766;60.318;25.044;2023-05-16T02:17:13;9;8;
73517;PMS5003;61766;60.318;25.044;2023-05-16T02:19:39;8;8;
73517;PMS5003;61766;60.318;25.044;2023-05-16T02:22:04;7;7;
73517;PMS5003;61766;60.318;25.044;2023-05-16T02:24:31;7;7;
73517;PMS5003;61766;60.318;25.044;2023-05-16T02:26:56;8;8;
73517;PMS5003;61766;60.318;25.044;2023-05-16T02:29:22;7;6;
73517;PMS5003;61766;60.318;25.044;2023-05-16T02:31:48;6;6;
73517;PMS5003;61766;60.318;25.044;2023-05-16T02:34:14;6;5;
73517;PMS5003;61766;60.318;25.044;2023-05-16T02:36:40;6;6;
73517;PMS5003;61766;60.318;25.044;2023-05-16T02:39:05;5;5;
73517;PMS5003;61766;60.318;25.044;2023-05-16T02:41:31;6;6;
73517;PMS5003;61766;60.318;25.044;2023-05-16T02:43:57;4;4;
73517;PMS5003;61766;60.318;25.044;2023-05-16T02:46:24;4;4;
73517;PMS5003;61766;60.318;25.044;2023-05-16T02:48:49;7;7;
73517;PMS5003;61766;60.318;25.044;2023-05-16T02:51:15;6;6;
73517;PMS5003;61766;60.318;25.044;2023-05-16T02:53:41;6;6;
73517;PMS5003;61766;60.318;25.044;2023-05-16T02:56:06;7;6;
73517;PMS5003;61766;60.318;25.044;2023-05-16T02:58:32;5;5;
73517;PMS5003;61766;60.318;25.044;2023-05-16T03:00:58;6;6;
73517;PMS5003;61766;60.318;25.044;2023-05-16T03:03:23;7;7;
73517;PMS5003;61766;60.318;25.044;2023-05-16T03:05:49;6;5;
73517;PMS5003;61766;60.318;25.044;2023-05-16T03:08:15;9;6;
73517;PMS5003;61766;60.318;25.044;2023-05-16T03:10:41;6;6;
73517;PMS5003;61766;60.318;25.044;2023-05-16T03:13:07;5;5;
73517;PMS5003;61766;60.318;25.044;2023-05-16T03:15:32;6;5;
73517;PMS5003;61766;60.318;25.044;2023-05-16T03:17:58;6;6;
73517;PMS5003;61766;60.318;25.044;2023-05-16T03:20:24;6;6;
73517;PMS5003;61766;60.318;25.044;2023-05-16T03:22:50;5;5;
73517;PMS5003;61766;60.318;25.044;2023-05-16T03:25:16;5;5;
73517;PMS5003;61766;60.318;25.044;2023-05-16T03:27:42;5;5;
73517;PMS5003;61766;60.318;25.044;2023-05-16T03:30:08;6;6;
73517;PMS5003;61766;60.318;25.044;2023-05-16T03:32:33;5;5;
73517;PMS5003;61766;60.318;25.044;2023-05-16T03:34:59;5;5;
73517;PMS5003;61766;60.318;25.044;2023-05-16T03:37:25;6;6;
73517;PMS5003;61766;60.318;25.044;2023-05-16T03:39:51;5;5;
73517;PMS5003;61766;60.318;25.044;2023-05-16T03:42:17;5;5;
73517;PMS5003;61766;60.318;25.044;2023-05-16T03:44:42;6;6;
73517;PMS5003;61766;60.318;25.044;2023-05-16T03:47:08;6;5;
73517;PMS5003;61766;60.318;25.044;2023-05-16T03:49:34;6;6;
73517;PMS5003;61766;60.318;25.044;2023-05-16T03:52:00;6;6;
73517;PMS5003;61766;60.318;25.044;2023-05-16T03:54:26;5;5;
73517;PMS5003;61766;60.318;25.044;2023-05-16T03:56:51;4;4;
73517;PMS5003;61766;60.318;25.044;2023-05-16T03:59:17;4;4;
73517;PMS5003;61766;60.318;25.044;2023-05-16T04:01:43;9;7;
73517;PMS5003;61766;60.318;25.044;2023-05-16T04:04:09;6;6;
73517;PMS5003;61766;60.318;25.044;2023-05-16T04:06:35;8;8;
73517;PMS5003;61766;60.318;25.044;2023-05-16T04:09:00;10;9;
73517;PMS5003;61766;60.318;25.044;2023-05-16T04:11:26;7;7;
73517;PMS5003;61766;60.318;25.044;2023-05-16T04:13:52;6;6;
73517;PMS5003;61766;60.318;25.044;2023-05-16T04:16:18;8;8;
73517;PMS5003;61766;60.318;25.044;2023-05-16T04:18:43;7;7;
73517;PMS5003;61766;60.318;25.044;2023-05-16T04:21:09;7;7;
73517;PMS5003;61766;60.318;25.044;2023-05-16T04:23:35;7;7;
73517;PMS5003;61766;60.318;25.044;2023-05-16T04:26:01;7;7;
73517;PMS5003;61766;60.318;25.044;2023-05-16T04:28:27;5;5;
73517;PMS5003;61766;60.318;25.044;2023-05-16T04:30:53;5;5;
73517;PMS5003;61766;60.318;25.044;2023-05-16T04:33:18;7;7;
73517;PMS5003;61766;60.318;25.044;2023-05-16T04:35:44;7;6;
73517;PMS5003;61766;60.318;25.044;2023-05-16T04:38:10;7;7;
73517;PMS5003;61766;60.318;25.044;2023-05-16T04:40:36;6;6;
73517;PMS5003;61766;60.318;25.044;2023-05-16T04:43:02;8;8;
73517;PMS5003;61766;60.318;25.044;2023-05-16T04:45:27;8;7;
73517;PMS5003;61766;60.318;25.044;2023-05-16T04:47:53;9;8;
73517;PMS5003;61766;60.318;25.044;2023-05-16T04:50:19;7;7;
73517;PMS5003;61766;60.318;25.044;2023-05-16T04:52:45;6;6;
73517;PMS5003;61766;60.318;25.044;2023-05-16T04:55:11;8;8;
73517;PMS5003;61766;60.318;25.044;2023-05-16T04:57:36;9;9;
73517;PMS5003;61766;60.318;25.044;2023-05-16T05:00:03;6;6;
73517;PMS5003;61766;60.318;25.044;2023-05-16T05:02:28;6;6;
73517;PMS5003;61766;60.318;25.044;2023-05-16T05:04:54;9;9;
73517;PMS5003;61766;60.318;25.044;2023-05-16T05:07:20;8;6;
73517;PMS5003;61766;60.318;25.044;2023-05-16T05:09:45;7;7;
73517;PMS5003;61766;60.318;25.044;2023-05-16T05:12:11;8;8;
73517;PMS5003;61766;60.318;25.044;2023-05-16T05:14:37;7;7;
73517;PMS5003;61766;60.318;25.044;2023-05-16T05:17:03;12;11;
73517;PMS5003;61766;60.318;25.044;2023-05-16T05:19:29;9;7;
73517;PMS5003;61766;60.318;25.044;2023-05-16T05:21:55;8;7;
73517;PMS5003;61766;60.318;25.044;2023-05-16T05:24:20;7;7;
73517;PMS5003;61766;60.318;25.044;2023-05-16T05:26:46;7;7;
73517;PMS5003;61766;60.318;25.044;2023-05-16T05:29:12;7;7;
73517;PMS5003;61766;60.318;25.044;2023-05-16T05:31:38;7;7;
73517;PMS5003;61766;60.318;25.044;2023-05-16T05:34:04;7;7;
73517;PMS5003;61766;60.318;25.044;2023-05-16T05:36:29;9;9;
73517;PMS5003;61766;60.318;25.044;2023-05-16T05:39:00;8;8;
73517;PMS5003;61766;60.318;25.044;2023-05-16T05:41:21;8;8;
73517;PMS5003;61766;60.318;25.044;2023-05-16T05:43:47;9;8;
73517;PMS5003;61766;60.318;25.044;2023-05-16T05:46:13;6;6;
73517;PMS5003;61766;60.318;25.044;2023-05-16T05:48:39;8;8;
73517;PMS5003;61766;60.318;25.044;2023-05-16T05:51:04;8;8;
73517;PMS5003;61766;60.318;25.044;2023-05-16T05:53:30;8;8;
73517;PMS5003;61766;60.318;25.044;2023-05-16T05:55:56;7;7;
73517;PMS5003;61766;60.318;25.044;2023-05-16T05:58:21;7;7;
73517;PMS5003;61766;60.318;25.044;2023-05-16T06:00:47;9;8;
73517;PMS5003;61766;60.318;25.044;2023-05-16T06:03:13;9;8;
73517;PMS5003;61766;60.318;25.044;2023-05-16T06:05:39;9;8;
73517;PMS5003;61766;60.318;25.044;2023-05-16T06:08:04;7;7;
73517;PMS5003;61766;60.318;25.044;2023-05-16T06:10:30;8;7;
73517;PMS5003;61766;60.318;25.044;2023-05-16T06:12:56;6;6;
73517;PMS5003;61766;60.318;25.044;2023-05-16T06:15:22;8;7;
73517;PMS5003;61766;60.318;25.044;2023-05-16T06:17:48;7;7;
73517;PMS5003;61766;60.318;25.044;2023-05-16T06:20:14;8;8;
73517;PMS5003;61766;60.318;25.044;2023-05-16T06:22:39;8;8;
73517;PMS5003;61766;60.318;25.044;2023-05-16T06:25:05;9;8;
73517;PMS5003;61766;60.318;25.044;2023-05-16T06:27:31;9;9;
73517;PMS5003;61766;60.318;25.044;2023-05-16T06:29:57;8;8;
73517;PMS5003;61766;60.318;25.044;2023-05-16T06:32:23;9;9;
73517;PMS5003;61766;60.318;25.044;2023-05-16T06:34:48;9;7;
73517;PMS5003;61766;60.318;25.044;2023-05-16T06:37:14;9;9;
73517;PMS5003;61766;60.318;25.044;2023-05-16T06:39:40;8;7;
73517;PMS5003;61766;60.318;25.044;2023-05-16T06:42:06;9;8;
73517;PMS5003;61766;60.318;25.044;2023-05-16T06:44:32;9;8;
73517;PMS5003;61766;60.318;25.044;2023-05-16T06:46:58;9;8;
73517;PMS5003;61766;60.318;25.044;2023-05-16T06:49:23;8;8;
73517;PMS5003;61766;60.318;25.044;2023-05-16T06:51:49;10;8;
73517;PMS5003;61766;60.318;25.044;2023-05-16T06:54:15;9;9;
73517;PMS5003;61766;60.318;25.044;2023-05-16T06:56:41;8;8;
73517;PMS5003;61766;60.318;25.044;2023-05-16T06:59:07;10;9;
73517;PMS5003;61766;60.318;25.044;2023-05-16T07:01:33;9;9;
73517;PMS5003;61766;60.318;25.044;2023-05-16T07:03:59;9;9;
73517;PMS5003;61766;60.318;25.044;2023-05-16T07:06:24;11;11;
73517;PMS5003;61766;60.318;25.044;2023-05-16T07:08:50;9;9;
73517;PMS5003;61766;60.318;25.044;2023-05-16T07:11:16;9;9;
73517;PMS5003;61766;60.318;25.044;2023-05-16T07:13:42;10;10;
73517;PMS5003;61766;60.318;25.044;2023-05-16T07:16:07;7;7;
73517;PMS5003;61766;60.318;25.044;2023-05-16T07:18:33;8;8;
73517;PMS5003;61766;60.318;25.044;2023-05-16T07:20:59;11;9;
73517;PMS5003;61766;60.318;25.044;2023-05-16T07:23:25;10;10;
73517;PMS5003;61766;60.318;25.044;2023-05-16T07:25:51;9;9;
73517;PMS5003;61766;60.318;25.044;2023-05-16T07:28:17;8;8;
73517;PMS5003;61766;60.318;25.044;2023-05-16T07:30:42;8;8;
73517;PMS5003;61766;60.318;25.044;2023-05-16T07:33:08;8;8;
73517;PMS5003;61766;60.318;25.044;2023-05-16T07:35:34;12;11;
73517;PMS5003;61766;60.318;25.044;2023-05-16T07:38:00;10;10;
73517;PMS5003;61766;60.318;25.044;2023-05-16T07:40:25;15;14;
73517;PMS5003;61766;60.318;25.044;2023-05-16T07:42:51;11;11;
73517;PMS5003;61766;60.318;25.044;2023-05-16T07:45:17;10;10;
73517;PMS5003;61766;60.318;25.044;2023-05-16T07:47:43;8;8;
73517;PMS5003;61766;60.318;25.044;2023-05-16T07:50:09;12;11;
73517;PMS5003;61766;60.318;25.044;2023-05-16T07:52:35;12;12;
73517;PMS5003;61766;60.318;25.044;2023-05-16T07:55:00;11;10;
73517;PMS5003;61766;60.318;25.044;2023-05-16T07:57:26;11;10;
73517;PMS5003;61766;60.318;25.044;2023-05-16T07:59:52;11;9;
73517;PMS5003;61766;60.318;25.044;2023-05-16T08:02:18;13;12;
73517;PMS5003;61766;60.318;25.044;2023-05-16T08:04:43;11;11;
73517;PMS5003;61766;60.318;25.044;2023-05-16T08:07:09;10;10;
73517;PMS5003;61766;60.318;25.044;2023-05-16T08:09:35;9;9;
73517;PMS5003;61766;60.318;25.044;2023-05-16T08:12:01;10;10;
73517;PMS5003;61766;60.318;25.044;2023-05-16T08:14:27;10;10;
73517;PMS5003;61766;60.318;25.044;2023-05-16T08:16:53;12;11;
73517;PMS5003;61766;60.318;25.044;2023-05-16T08:19:18;10;10;
73517;PMS5003;61766;60.318;25.044;2023-05-16T08:21:44;10;10;
73517;PMS5003;61766;60.318;25.044;2023-05-16T08:24:10;12;11;
73517;PMS5003;61766;60.318;25.044;2023-05-16T08:26:36;12;12;
73517;PMS5003;61766;60.318;25.044;2023-05-16T08:29:02;9;9;
73517;PMS5003;61766;60.318;25.044;2023-05-16T08:31:28;12;12;
73517;PMS5003;61766;60.318;25.044;2023-05-16T08:33:53;11;11;
73517;PMS5003;61766;60.318;25.044;2023-05-16T08:36:19;11;10;
73517;PMS5003;61766;60.318;25.044;2023-05-16T08:38:44;16;16;
73517;PMS5003;61766;60.318;25.044;2023-05-16T08:41:09;14;14;
73517;PMS5003;61766;60.318;25.044;2023-05-16T08:43:35;16;16;
73517;PMS5003;61766;60.318;25.044;2023-05-16T08:46:01;13;13;
73517;PMS5003;61766;60.318;25.044;2023-05-16T08:48:27;11;10;
73517;PMS5003;61766;60.318;25.044;2023-05-16T08:50:53;12;12;
73517;PMS5003;61766;60.318;25.044;2023-05-16T08:53:20;12;12;
73517;PMS5003;61766;60.318;25.044;2023-05-16T08:55:43;12;11;
73517;PMS5003;61766;60.318;25.044;2023-05-16T08:58:08;14;12;
73517;PMS5003;61766;60.318;25.044;2023-05-16T09:00:34;16;16;
73517;PMS5003;61766;60.318;25.044;2023-05-16T09:02:59;12;12;
73517;PMS5003;61766;60.318;25.044;2023-05-16T09:05:24;12;11;
73517;PMS5003;61766;60.318;25.044;2023-05-16T09:07:49;13;12;
73517;PMS5003;61766;60.318;25.044;2023-05-16T09:10:14;11;11;
73517;PMS5003;61766;60.318;25.044;2023-05-16T09:12:40;16;16;
73517;PMS5003;61766;60.318;25.044;2023-05-16T09:15:05;14;14;
73517;PMS5003;61766;60.318;25.044;2023-05-16T09:17:33;14;14;
73517;PMS5003;61766;60.318;25.044;2023-05-16T09:19:55;14;14;
73517;PMS5003;61766;60.318;25.044;2023-05-16T09:22:20;15;14;
73517;PMS5003;61766;60.318;25.044;2023-05-16T09:24:45;13;13;
73517;PMS5003;61766;60.318;25.044;2023-05-16T09:27:11;14;13;
73517;PMS5003;61766;60.318;25.044;2023-05-16T09:29:37;16;16;
73517;PMS5003;61766;60.318;25.044;2023-05-16T09:32:08;19;18;
73517;PMS5003;61766;60.318;25.044;2023-05-16T09:34:27;15;15;
73517;PMS5003;61766;60.318;25.044;2023-05-16T09:36:53;14;13;
73517;PMS5003;61766;60.318;25.044;2023-05-16T09:39:17;16;15;
73517;PMS5003;61766;60.318;25.044;2023-05-16T09:41:42;14;14;
73517;PMS5003;61766;60.318;25.044;2023-05-16T09:44:08;13;13;
73517;PMS5003;61766;60.318;25.044;2023-05-16T09:46:34;15;15;
73517;PMS5003;61766;60.318;25.044;2023-05-16T09:48:59;19;18;
73517;PMS5003;61766;60.318;25.044;2023-05-16T09:51:24;18;17;
73517;PMS5003;61766;60.318;25.044;2023-05-16T09:53:50;16;15;
73517;PMS5003;61766;60.318;25.044;2023-05-16T09:56:15;15;14;
73517;PMS5003;61766;60.318;25.044;2023-05-16T09:58:41;17;15;
73517;PMS5003;61766;60.318;25.044;2023-05-16T10:01:06;16;14;
73517;PMS5003;61766;60.318;25.044;2023-05-16T10:03:32;19;19;
73517;PMS5003;61766;60.318;25.044;2023-05-16T10:05:56;14;14;
73517;PMS5003;61766;60.318;25.044;2023-05-16T10:08:22;17;17;
73517;PMS5003;61766;60.318;25.044;2023-05-16T10:10:47;16;15;
73517;PMS5003;61766;60.318;25.044;2023-05-16T10:13:11;20;19;
73517;PMS5003;61766;60.318;25.044;2023-05-16T10:15:37;17;16;
73517;PMS5003;61766;60.318;25.044;2023-05-16T10:18:02;18;18;
73517;PMS5003;61766;60.318;25.044;2023-05-16T10:20:28;16;16;
73517;PMS5003;61766;60.318;25.044;2023-05-16T10:22:54;19;19;
73517;PMS5003;61766;60.318;25.044;2023-05-16T10:25:21;17;16;
73517;PMS5003;61766;60.318;25.044;2023-05-16T10:27:44;15;15;
73517;PMS5003;61766;60.318;25.044;2023-05-16T10:30:09;17;17;
73517;PMS5003;61766;60.318;25.044;2023-05-16T10:32:34;17;17;
73517;PMS5003;61766;60.318;25.044;2023-05-16T10:35:00;15;15;
73517;PMS5003;61766;60.318;25.044;2023-05-16T10:37:25;19;18;
73517;PMS5003;61766;60.318;25.044;2023-05-16T10:39:51;16;16;
73517;PMS5003;61766;60.318;25.044;2023-05-16T10:42:16;17;17;
73517;PMS5003;61766;60.318;25.044;2023-05-16T10:44:41;20;19;
73517;PMS5003;61766;60.318;25.044;2023-05-16T10:47:07;15;14;
73517;PMS5003;61766;60.318;25.044;2023-05-16T10:49:32;19;18;
73517;PMS5003;61766;60.318;25.044;2023-05-16T10:52:04;18;17;
73517;PMS5003;61766;60.318;25.044;2023-05-16T10:54:24;19;19;
73517;PMS5003;61766;60.318;25.044;2023-05-16T10:59:22;20;20;
73517;PMS5003;61766;60.318;25.044;2023-05-16T11:01:39;22;22;
73517;PMS5003;61766;60.318;25.044;2023-05-16T11:04:05;21;19;
73517;PMS5003;61766;60.318;25.044;2023-05-16T11:06:31;18;18;
73517;PMS5003;61766;60.318;25.044;2023-05-16T11:08:57;19;19;
73517;PMS5003;61766;60.318;25.044;2023-05-16T11:18:38;17;17;
73517;PMS5003;61766;60.318;25.044;2023-05-16T11:21:03;22;21;
73517;PMS5003;61766;60.318;25.044;2023-05-16T11:23:28;20;20;
73517;PMS5003;61766;60.318;25.044;2023-05-16T11:25:54;19;19;
73517;PMS5003;61766;60.318;25.044;2023-05-16T11:28:18;21;19;
73517;PMS5003;61766;60.318;25.044;2023-05-16T11:30:44;21;20;
73517;PMS5003;61766;60.318;25.044;2023-05-16T11:33:08;19;19;
73517;PMS5003;61766;60.318;25.044;2023-05-16T11:35:34;17;16;
73517;PMS5003;61766;60.318;25.044;2023-05-16T11:37:59;18;17;
73517;PMS5003;61766;60.318;25.044;2023-05-16T11:40:25;21;21;
73517;PMS5003;61766;60.318;25.044;2023-05-16T11:42:49;19;19;
73517;PMS5003;61766;60.318;25.044;2023-05-16T11:45:15;21;21;
73517;PMS5003;61766;60.318;25.044;2023-05-16T11:47:41;20;20;
73517;PMS5003;61766;60.318;25.044;2023-05-16T11:50:05;20;20;
73517;PMS5003;61766;60.318;25.044;2023-05-16T11:52:31;19;19;
73517;PMS5003;61766;60.318;25.044;2023-05-16T11:54:56;22;22;
73517;PMS5003;61766;60.318;25.044;2023-05-16T11:57:21;20;19;
73517;PMS5003;61766;60.318;25.044;2023-05-16T11:59:47;17;17;
73517;PMS5003;61766;60.318;25.044;2023-05-16T12:02:12;18;18;
73517;PMS5003;61766;60.318;25.044;2023-05-16T12:04:38;19;19;
73517;PMS5003;61766;60.318;25.044;2023-05-16T12:07:03;17;17;
73517;PMS5003;61766;60.318;25.044;2023-05-16T12:09:29;21;20;
73517;PMS5003;61766;60.318;25.044;2023-05-16T12:11:54;21;20;
73517;PMS5003;61766;60.318;25.044;2023-05-16T12:14:19;20;20;
73517;PMS5003;61766;60.318;25.044;2023-05-16T12:16:44;21;19;
73517;PMS5003;61766;60.318;25.044;2023-05-16T12:19:09;27;26;
73517;PMS5003;61766;60.318;25.044;2023-05-16T12:21:36;21;21;
73517;PMS5003;61766;60.318;25.044;2023-05-16T12:24:01;22;21;
73517;PMS5003;61766;60.318;25.044;2023-05-16T12:26:27;22;22;
73517;PMS5003;61766;60.318;25.044;2023-05-16T12:28:52;22;21;
73517;PMS5003;61766;60.318;25.044;2023-05-16T12:31:17;21;21;
73517;PMS5003;61766;60.318;25.044;2023-05-16T12:33:43;26;25;
73517;PMS5003;61766;60.318;25.044;2023-05-16T12:36:11;21;19;
73517;PMS5003;61766;60.318;25.044;2023-05-16T12:38:33;19;19;
73517;PMS5003;61766;60.318;25.044;2023-05-16T12:40:58;17;17;
73517;PMS5003;61766;60.318;25.044;2023-05-16T12:43:24;20;19;
73517;PMS5003;61766;60.318;25.044;2023-05-16T12:45:49;19;18;
73517;PMS5003;61766;60.318;25.044;2023-05-16T12:48:15;20;19;
73517;PMS5003;61766;60.318;25.044;2023-05-16T12:50:40;20;20;
73517;PMS5003;61766;60.318;25.044;2023-05-16T12:53:09;22;20;
73517;PMS5003;61766;60.318;25.044;2023-05-16T12:55:31;22;21;
73517;PMS5003;61766;60.318;25.044;2023-05-16T12:57:56;24;23;
73517;PMS5003;61766;60.318;25.044;2023-05-16T13:00:22;24;24;
73517;PMS5003;61766;60.318;25.044;2023-05-16T13:02:47;19;19;
73517;PMS5003;61766;60.318;25.044;2023-05-16T13:05:13;23;22;
73517;PMS5003;61766;60.318;25.044;2023-05-16T13:07:39;19;19;
73517;PMS5003;61766;60.318;25.044;2023-05-16T13:10:04;21;20;
73517;PMS5003;61766;60.318;25.044;2023-05-16T13:12:29;24;24;
73517;PMS5003;61766;60.318;25.044;2023-05-16T13:14:54;20;20;
73517;PMS5003;61766;60.318;25.044;2023-05-16T13:17:19;21;19;
73517;PMS5003;61766;60.318;25.044;2023-05-16T13:19:45;18;18;
73517;PMS5003;61766;60.318;25.044;2023-05-16T13:22:11;19;19;
73517;PMS5003;61766;60.318;25.044;2023-05-16T13:24:36;20;19;
73517;PMS5003;61766;60.318;25.044;2023-05-16T13:27:01;19;19;
73517;PMS5003;61766;60.318;25.044;2023-05-16T13:29:27;17;17;
73517;PMS5003;61766;60.318;25.044;2023-05-16T13:31:52;21;21;
73517;PMS5003;61766;60.318;25.044;2023-05-16T13:34:17;21;21;
73517;PMS5003;61766;60.318;25.044;2023-05-16T13:36:42;20;20;
73517;PMS5003;61766;60.318;25.044;2023-05-16T13:39:08;20;20;
73517;PMS5003;61766;60.318;25.044;2023-05-16T13:41:34;17;16;
73517;PMS5003;61766;60.318;25.044;2023-05-16T13:43:59;26;25;
73517;PMS5003;61766;60.318;25.044;2023-05-16T13:46:25;21;21;
73517;PMS5003;61766;60.318;25.044;2023-05-16T13:48:50;25;24;
73517;PMS5003;61766;60.318;25.044;2023-05-16T13:51:16;23;23;
73517;PMS5003;61766;60.318;25.044;2023-05-16T13:53:41;20;19;
73517;PMS5003;61766;60.318;25.044;2023-05-16T13:56:06;18;18;
73517;PMS5003;61766;60.318;25.044;2023-05-16T13:58:32;19;19;
73517;PMS5003;61766;60.318;25.044;2023-05-16T14:00:57;24;22;
73517;PMS5003;61766;60.318;25.044;2023-05-16T14:03:22;20;20;
73517;PMS5003;61766;60.318;25.044;2023-05-16T14:05:47;21;20;
73517;PMS5003;61766;60.318;25.044;2023-05-16T14:08:13;20;20;
73517;PMS5003;61766;60.318;25.044;2023-05-16T14:10:38;22;22;
73517;PMS5003;61766;60.318;25.044;2023-05-16T14:13:03;22;22;
73517;PMS5003;61766;60.318;25.044;2023-05-16T14:15:28;22;20;
73517;PMS5003;61766;60.318;25.044;2023-05-16T14:17:53;25;24;
73517;PMS5003;61766;60.318;25.044;2023-05-16T14:20:19;25;24;
73517;PMS5003;61766;60.318;25.044;2023-05-16T14:22:45;28;28;
73517;PMS5003;61766;60.318;25.044;2023-05-16T14:25:11;25;25;
73517;PMS5003;61766;60.318;25.044;2023-05-16T14:27:36;21;21;
73517;PMS5003;61766;60.318;25.044;2023-05-16T14:30:01;26;26;
73517;PMS5003;61766;60.318;25.044;2023-05-16T14:32:27;21;21;
73517;PMS5003;61766;60.318;25.044;2023-05-16T14:34:52;23;22;
73517;PMS5003;61766;60.318;25.044;2023-05-16T14:37:17;25;25;
73517;PMS5003;61766;60.318;25.044;2023-05-16T14:39:43;26;25;
73517;PMS5003;61766;60.318;25.044;2023-05-16T14:42:07;24;23;
73517;PMS5003;61766;60.318;25.044;2023-05-16T14:44:33;24;24;
73517;PMS5003;61766;60.318;25.044;2023-05-16T14:46:59;21;21;
73517;PMS5003;61766;60.318;25.044;2023-05-16T14:49:24;30;28;
73517;PMS5003;61766;60.318;25.044;2023-05-16T14:51:49;26;26;
73517;PMS5003;61766;60.318;25.044;2023-05-16T14:54:15;25;24;
73517;PMS5003;61766;60.318;25.044;2023-05-16T14:56:40;24;24;
73517;PMS5003;61766;60.318;25.044;2023-05-16T14:59:06;24;23;
73517;PMS5003;61766;60.318;25.044;2023-05-16T15:01:31;22;22;
73517;PMS5003;61766;60.318;25.044;2023-05-16T15:03:57;26;26;
73517;PMS5003;61766;60.318;25.044;2023-05-16T15:06:22;23;23;
73517;PMS5003;61766;60.318;25.044;2023-05-16T15:08:48;24;24;
73517;PMS5003;61766;60.318;25.044;2023-05-16T15:11:14;22;22;
73517;PMS5003;61766;60.318;25.044;2023-05-16T15:13:39;23;23;
73517;PMS5003;61766;60.318;25.044;2023-05-16T15:16:04;27;24;
73517;PMS5003;61766;60.318;25.044;2023-05-16T15:18:29;26;24;
73517;PMS5003;61766;60.318;25.044;2023-05-16T15:20:54;21;21;
73517;PMS5003;61766;60.318;25.044;2023-05-16T15:23:20;22;21;
73517;PMS5003;61766;60.318;25.044;2023-05-16T15:25:45;25;24;
73517;PMS5003;61766;60.318;25.044;2023-05-16T15:28:10;30;28;
73517;PMS5003;61766;60.318;25.044;2023-05-16T15:30:36;21;21;
73517;PMS5003;61766;60.318;25.044;2023-05-16T15:33:02;26;26;
73517;PMS5003;61766;60.318;25.044;2023-05-16T15:35:27;24;23;
73517;PMS5003;61766;60.318;25.044;2023-05-16T15:37:53;24;24;
73517;PMS5003;61766;60.318;25.044;2023-05-16T15:40:18;21;20;
73517;PMS5003;61766;60.318;25.044;2023-05-16T15:42:43;23;23;
73517;PMS5003;61766;60.318;25.044;2023-05-16T15:45:09;25;23;
73517;PMS5003;61766;60.318;25.044;2023-05-16T15:47:34;26;26;
73517;PMS5003;61766;60.318;25.044;2023-05-16T15:49:59;26;26;
73517;PMS5003;61766;60.318;25.044;2023-05-16T15:52:25;23;22;
73517;PMS5003;61766;60.318;25.044;2023-05-16T15:54:51;21;21;
73517;PMS5003;61766;60.318;25.044;2023-05-16T15:57:16;22;22;
73517;PMS5003;61766;60.318;25.044;2023-05-16T15:59:42;24;24;
73517;PMS5003;61766;60.318;25.044;2023-05-16T16:02:07;28;28;
73517;PMS5003;61766;60.318;25.044;2023-05-16T16:04:32;28;28;
73517;PMS5003;61766;60.318;25.044;2023-05-16T16:06:58;27;27;
73517;PMS5003;61766;60.318;25.044;2023-05-16T16:09:23;26;25;
73517;PMS5003;61766;60.318;25.044;2023-05-16T16:11:48;29;28;